Time;durP1;ratioP1;P1;durP2;ratioP2;P2;SDS_P1;SDS_P2;PMS_P1;PMS_P2;Temp;Humidity;BMP_temperature;BMP_pressure;BME280_temperature;BME280_humidity;BME280_pressure;Samples;Min_cycle;Max_cycle;Signal;HPM_P1;HPM_P2
2022/08/26 00:01:15;;;;;;;6.70;4.00;;;;;;;;;;110416;1249;35049;-33
2022/08/26 00:03:46;;;;;;;7.10;4.00;;;;;;;;;;110434;1250;34400;-33
2022/08/26 00:06:17;;;;;;;8.90;4.20;;;;;;;;;;110436;1250;35081;-32
2022/08/26 00:08:49;;;;;;;6.40;4.00;;;;;;;;;;110402;1256;34096;-32
2022/08/26 00:11:20;;;;;;;5.80;4.20;;;;;;;;;;110413;1256;34605;-33
2022/08/26 00:13:50;;;;;;;6.10;4.00;;;;;;;;;;110430;1248;35617;-33
2022/08/26 00:16:21;;;;;;;7.30;4.00;;;;;;;;;;110377;1256;34976;-33
2022/08/26 00:18:52;;;;;;;6.90;3.90;;;;;;;;;;110376;1250;35115;-33
2022/08/26 00:21:24;;;;;;;10.30;4.20;;;;;;;;;;110396;1256;35099;-33
2022/08/26 00:23:54;;;;;;;6.10;3.90;;;;;;;;;;110408;1256;35462;-33
2022/08/26 00:26:25;;;;;;;8.00;4.20;;;;;;;;;;110420;1247;34874;-33
2022/08/26 00:28:56;;;;;;;8.80;4.00;;;;;;;;;;110405;1247;34949;-32
2022/08/26 00:31:27;;;;;;;6.20;3.80;;;;;;;;;;110426;1250;34364;-32
2022/08/26 00:33:59;;;;;;;7.10;3.80;;;;;;;;;;110385;1256;35007;-32
2022/08/26 00:36:32;;;;;;;7.10;4.00;;;;;;;;;;110434;1256;35028;-32
2022/08/26 00:39:03;;;;;;;6.60;4.00;;;;;;;;;;110414;1256;35122;-33
2022/08/26 00:41:34;;;;;;;7.50;4.10;;;;;;;;;;110402;1250;33290;-32
2022/08/26 00:44:05;;;;;;;7.00;3.60;;;;;;;;;;110384;1256;35418;-33
2022/08/26 00:46:39;;;;;;;7.50;4.30;;;;;;;;;;110394;1256;35049;-32
2022/08/26 00:49:13;;;;;;;8.60;3.90;;;;;;;;;;110402;1256;35151;-32
2022/08/26 00:51:48;;;;;;;6.70;3.80;;;;;;;;;;110432;1248;34466;-33
2022/08/26 00:54:19;;;;;;;7.90;3.90;;;;;;;;;;110393;1256;35041;-33
2022/08/26 00:56:55;;;;;;;7.00;4.20;;;;;;;;;;110397;1256;33291;-31
2022/08/26 00:59:26;;;;;;;6.90;4.20;;;;;;;;;;110437;1256;34925;-32
2022/08/26 01:01:57;;;;;;;6.80;4.10;;;;;;;;;;110387;1256;35844;-32
2022/08/26 01:04:30;;;;;;;5.90;3.80;;;;;;;;;;110418;1250;33297;-32
2022/08/26 01:07:01;;;;;;;6.90;4.20;;;;;;;;;;110414;1248;35005;-32
2022/08/26 01:09:33;;;;;;;7.80;4.30;;;;;;;;;;110417;1256;35127;-32
2022/08/26 01:12:05;;;;;;;9.00;3.80;;;;;;;;;;110305;1256;34331;-32
2022/08/26 01:14:39;;;;;;;9.40;4.40;;;;;;;;;;110404;1256;33387;-32
2022/08/26 01:17:10;;;;;;;7.70;4.20;;;;;;;;;;110432;1250;33659;-32
2022/08/26 01:19:44;;;;;;;7.90;4.60;;;;;;;;;;110401;1256;33405;-32
2022/08/26 01:22:17;;;;;;;7.70;4.20;;;;;;;;;;110427;1251;33718;-32
2022/08/26 01:24:49;;;;;;;6.60;3.70;;;;;;;;;;110395;1256;34992;-33
2022/08/26 01:27:20;;;;;;;7.20;4.30;;;;;;;;;;110421;1256;35243;-31
2022/08/26 01:29:52;;;;;;;6.20;4.10;;;;;;;;;;110439;1250;35397;-32
2022/08/26 01:32:24;;;;;;;7.10;4.00;;;;;;;;;;110436;1256;34991;-33
2022/08/26 01:34:56;;;;;;;7.20;4.00;;;;;;;;;;110396;1256;35144;-33
2022/08/26 01:37:33;;;;;;;7.60;4.20;;;;;;;;;;110399;1250;34489;-33
2022/08/26 01:40:07;;;;;;;7.30;4.20;;;;;;;;;;110399;1256;35400;-32
2022/08/26 01:42:40;;;;;;;7.70;4.30;;;;;;;;;;110414;1256;35013;-31
2022/08/26 01:45:18;;;;;;;7.30;4.50;;;;;;;;;;110429;1250;33787;-31
2022/08/26 01:47:52;;;;;;;9.60;4.50;;;;;;;;;;110431;1253;35663;-32
2022/08/26 01:50:27;;;;;;;7.50;4.40;;;;;;;;;;110412;1256;35163;-33
2022/08/26 01:53:00;;;;;;;7.50;4.70;;;;;;;;;;110446;1256;35009;-33
2022/08/26 01:55:36;;;;;;;9.20;4.10;;;;;;;;;;110432;1256;33752;-33
2022/08/26 01:58:09;;;;;;;6.70;4.50;;;;;;;;;;110434;1251;35032;-33
2022/08/26 02:00:40;;;;;;;6.70;4.00;;;;;;;;;;110446;1250;34782;-32
2022/08/26 02:03:17;;;;;;;6.30;4.30;;;;;;;;;;110420;1256;35137;-32
2022/08/26 02:05:51;;;;;;;7.50;4.30;;;;;;;;;;110407;1256;33779;-32
2022/08/26 02:08:28;;;;;;;9.10;4.60;;;;;;;;;;110451;1247;33863;-33
2022/08/26 02:11:00;;;;;;;8.30;4.50;;;;;;;;;;110427;1249;35394;-32
2022/08/26 02:13:33;;;;;;;7.50;4.70;;;;;;;;;;110404;1250;34959;-33
2022/08/26 02:16:04;;;;;;;9.80;4.70;;;;;;;;;;110394;1256;35265;-33
2022/08/26 02:18:38;;;;;;;7.70;4.50;;;;;;;;;;110427;1256;35575;-33
2022/08/26 02:21:09;;;;;;;9.70;4.80;;;;;;;;;;110424;1256;34383;-33
2022/08/26 02:23:41;;;;;;;7.50;4.60;;;;;;;;;;110415;1250;34956;-31
2022/08/26 02:26:15;;;;;;;9.40;4.30;;;;;;;;;;110435;1256;35349;-32
2022/08/26 02:28:45;;;;;;;;;;;;;;;;;;110399;1256;34984;-32
2022/08/26 02:31:16;;;;;;;8.00;4.50;;;;;;;;;;110397;1256;34385;-32
2022/08/26 02:33:47;;;;;;;8.90;4.60;;;;;;;;;;110417;1256;35524;-32
2022/08/26 02:36:22;;;;;;;8.20;4.20;;;;;;;;;;110404;1256;33315;-32
2022/08/26 02:38:53;;;;;;;6.60;4.20;;;;;;;;;;110407;1257;34981;-32
2022/08/26 02:41:24;;;;;;;6.90;4.50;;;;;;;;;;110395;1256;35047;-32
2022/08/26 02:43:54;;;;;;;7.00;4.70;;;;;;;;;;110432;1256;34852;-32
2022/08/26 02:46:30;;;;;;;7.50;4.30;;;;;;;;;;110403;1251;35040;-33
2022/08/26 02:49:01;;;;;;;9.00;4.60;;;;;;;;;;110429;1256;35003;-32
2022/08/26 02:51:32;;;;;;;10.20;5.10;;;;;;;;;;110435;1250;35215;-33
2022/08/26 02:54:03;;;;;;;6.90;4.60;;;;;;;;;;110408;1256;33337;-33
2022/08/26 02:56:35;;;;;;;8.00;4.90;;;;;;;;;;110418;1256;35127;-33
2022/08/26 02:59:11;;;;;;;8.60;4.80;;;;;;;;;;110400;1248;34961;-33
2022/08/26 03:01:43;;;;;;;6.90;4.50;;;;;;;;;;110427;1248;34424;-33
2022/08/26 03:04:14;;;;;;;7.60;4.40;;;;;;;;;;110389;1250;34198;-33
2022/08/26 03:06:45;;;;;;;6.70;4.40;;;;;;;;;;110417;1257;34952;-33
2022/08/26 03:09:18;;;;;;;6.60;4.90;;;;;;;;;;110445;1257;35320;-31
2022/08/26 03:11:49;;;;;;;8.30;4.70;;;;;;;;;;110441;1248;35075;-33
2022/08/26 03:14:20;;;;;;;8.40;4.70;;;;;;;;;;110399;1254;34988;-33
2022/08/26 03:16:53;;;;;;;7.50;4.60;;;;;;;;;;110409;1256;35470;-33
2022/08/26 03:19:22;;;;;;;;;;;;;;;;;;110392;1257;35349;-32
2022/08/26 03:21:53;;;;;;;7.20;4.20;;;;;;;;;;110423;1248;34959;-33
2022/08/26 03:24:25;;;;;;;8.00;4.60;;;;;;;;;;110418;1253;33267;-32
2022/08/26 03:26:56;;;;;;;6.90;4.60;;;;;;;;;;110410;1254;34705;-33
2022/08/26 03:32:16;;;;;;;8.30;4.60;;;;;;;;;;110413;1257;34540;-32
2022/08/26 03:34:48;;;;;;;7.30;4.80;;;;;;;;;;110425;1256;35169;-32
2022/08/26 03:37:20;;;;;;;6.70;4.30;;;;;;;;;;110430;1256;35004;-32
2022/08/26 03:39:51;;;;;;;6.90;4.70;;;;;;;;;;110302;1250;34344;-32
2022/08/26 03:42:24;;;;;;;7.30;4.80;;;;;;;;;;110423;1257;33765;-33
2022/08/26 03:44:55;;;;;;;7.80;4.70;;;;;;;;;;110408;1257;34123;-33
2022/08/26 03:47:26;;;;;;;7.80;4.80;;;;;;;;;;110411;1256;35079;-32
2022/08/26 03:49:58;;;;;;;7.90;5.10;;;;;;;;;;110429;1256;34961;-32
2022/08/26 03:52:30;;;;;;;7.30;4.40;;;;;;;;;;110419;1254;35070;-32
2022/08/26 03:55:01;;;;;;;5.80;4.30;;;;;;;;;;110432;1254;34278;-32
2022/08/26 03:57:32;;;;;;;9.10;4.80;;;;;;;;;;110430;1254;34254;-32
2022/08/26 04:00:05;;;;;;;9.00;5.20;;;;;;;;;;110437;1256;34980;-32
2022/08/26 04:02:37;;;;;;;7.20;4.70;;;;;;;;;;110442;1248;33332;-32
2022/08/26 04:05:12;;;;;;;8.10;4.90;;;;;;;;;;110415;1257;34989;-32
2022/08/26 04:07:43;;;;;;;7.20;5.00;;;;;;;;;;110408;1256;35194;-32
2022/08/26 04:10:16;;;;;;;6.40;4.90;;;;;;;;;;110440;1256;33800;-32
2022/08/26 04:12:48;;;;;;;7.30;4.40;;;;;;;;;;110427;1257;35473;-32
2022/08/26 04:15:20;;;;;;;8.30;4.90;;;;;;;;;;110407;1256;34923;-32
2022/08/26 04:17:51;;;;;;;8.90;4.80;;;;;;;;;;110449;1257;34974;-32
2022/08/26 04:20:22;;;;;;;8.50;5.10;;;;;;;;;;110447;1256;35395;-32
2022/08/26 04:22:53;;;;;;;7.50;4.80;;;;;;;;;;110421;1257;34976;-32
2022/08/26 04:25:24;;;;;;;11.00;5.00;;;;;;;;;;110416;1257;34257;-32
2022/08/26 04:27:55;;;;;;;8.70;4.60;;;;;;;;;;110424;1256;35430;-33
2022/08/26 04:30:27;;;;;;;9.70;4.90;;;;;;;;;;110430;1256;35347;-33
2022/08/26 04:32:58;;;;;;;7.30;4.50;;;;;;;;;;110450;1257;33345;-33
2022/08/26 04:35:28;;;;;;;8.40;5.50;;;;;;;;;;110395;1257;35284;-32
2022/08/26 04:37:59;;;;;;;8.30;5.10;;;;;;;;;;110411;1256;35414;-32
2022/08/26 04:40:30;;;;;;;8.60;5.50;;;;;;;;;;110377;1257;35653;-32
2022/08/26 04:43:04;;;;;;;8.60;5.30;;;;;;;;;;110417;1248;35018;-32
2022/08/26 04:45:38;;;;;;;8.30;5.10;;;;;;;;;;110377;1256;35105;-31
2022/08/26 04:48:10;;;;;;;9.20;4.70;;;;;;;;;;110377;1256;35544;-32
2022/08/26 04:50:44;;;;;;;7.80;5.10;;;;;;;;;;110387;1256;34986;-32
2022/08/26 04:53:19;;;;;;;8.70;5.20;;;;;;;;;;110356;1256;33807;-32
2022/08/26 04:55:48;;;;;;;;;;;;;;;;;;110400;1248;34970;-32
2022/08/26 04:58:22;;;;;;;8.70;5.00;;;;;;;;;;110411;1257;35085;-32
2022/08/26 05:00:52;;;;;;;;;;;;;;;;;;110436;1256;33259;-32
2022/08/26 05:03:26;;;;;;;9.20;5.70;;;;;;;;;;110416;1256;34358;-32
2022/08/26 05:05:57;;;;;;;10.30;5.40;;;;;;;;;;110435;1256;35027;-33
2022/08/26 05:08:27;;;;;;;10.90;5.90;;;;;;;;;;110410;1257;35443;-33
2022/08/26 05:11:03;;;;;;;10.30;5.40;;;;;;;;;;110423;1249;35218;-31
2022/08/26 05:13:37;;;;;;;8.60;5.70;;;;;;;;;;110435;1256;35190;-32
2022/08/26 05:16:12;;;;;;;11.10;5.70;;;;;;;;;;110417;1256;35065;-32
2022/08/26 05:18:44;;;;;;;10.80;6.10;;;;;;;;;;110447;1248;33918;-32
2022/08/26 05:21:21;;;;;;;9.90;5.90;;;;;;;;;;110424;1250;35090;-32
2022/08/26 05:23:53;;;;;;;13.00;6.40;;;;;;;;;;110449;1257;35196;-32
2022/08/26 05:26:27;;;;;;;12.30;6.40;;;;;;;;;;110429;1257;35055;-32
2022/08/26 05:29:00;;;;;;;12.50;6.30;;;;;;;;;;110388;1256;35205;-32
2022/08/26 05:31:32;;;;;;;11.50;6.10;;;;;;;;;;110434;1256;35059;-32
2022/08/26 05:34:04;;;;;;;13.30;6.30;;;;;;;;;;110402;1248;33881;-32
2022/08/26 05:36:37;;;;;;;12.10;6.70;;;;;;;;;;110398;1248;34908;-32
2022/08/26 05:39:09;;;;;;;14.30;6.60;;;;;;;;;;110431;1256;33704;-32
2022/08/26 05:41:41;;;;;;;10.20;6.40;;;;;;;;;;110441;1257;35015;-32
2022/08/26 05:44:14;;;;;;;13.50;6.70;;;;;;;;;;110457;1248;34928;-32
2022/08/26 05:46:45;;;;;;;14.40;7.30;;;;;;;;;;110430;1251;35013;-32
2022/08/26 05:49:17;;;;;;;13.10;7.30;;;;;;;;;;110439;1248;33359;-33
2022/08/26 05:51:48;;;;;;;15.40;7.00;;;;;;;;;;110452;1256;35091;-33
2022/08/26 05:54:18;;;;;;;12.40;7.00;;;;;;;;;;110445;1257;34985;-32
2022/08/26 05:56:52;;;;;;;12.20;7.20;;;;;;;;;;110446;1256;35462;-32
2022/08/26 05:59:22;;;;;;;12.70;7.10;;;;;;;;;;110448;1248;35559;-32
2022/08/26 06:01:56;;;;;;;18.60;7.60;;;;;;;;;;110436;1250;35167;-32
2022/08/26 06:04:27;;;;;;;14.30;7.00;;;;;;;;;;110427;1256;35189;-32
2022/08/26 06:07:02;;;;;;;14.50;7.10;;;;;;;;;;110405;1254;34924;-32
2022/08/26 06:09:36;;;;;;;14.10;7.30;;;;;;;;;;110445;1257;35533;-33
2022/08/26 06:12:11;;;;;;;14.30;7.80;;;;;;;;;;110436;1256;35239;-33
2022/08/26 06:14:42;;;;;;;12.10;7.20;;;;;;;;;;110434;1257;34946;-33
2022/08/26 06:17:13;;;;;;;14.40;7.90;;;;;;;;;;110463;1256;35373;-33
2022/08/26 06:19:44;;;;;;;17.00;7.70;;;;;;;;;;110427;1256;34971;-33
2022/08/26 06:27:54;;;;;;;15.30;8.00;;;;;;;;;;110427;1250;34486;-32
2022/08/26 06:30:25;;;;;;;16.80;8.30;;;;;;;;;;110412;1256;35301;-32
2022/08/26 06:32:56;;;;;;;17.30;8.30;;;;;;;;;;110411;1257;35280;-32
2022/08/26 06:35:27;;;;;;;14.20;7.30;;;;;;;;;;110435;1251;35017;-32
2022/08/26 06:37:58;;;;;;;16.20;7.90;;;;;;;;;;110426;1256;35528;-32
2022/08/26 06:40:29;;;;;;;15.30;8.50;;;;;;;;;;110449;1248;33357;-32
2022/08/26 06:43:00;;;;;;;18.60;8.50;;;;;;;;;;110359;1256;35028;-32
2022/08/26 06:45:31;;;;;;;15.90;8.10;;;;;;;;;;110330;1256;34930;-33
2022/08/26 06:48:02;;;;;;;16.80;8.40;;;;;;;;;;110395;1256;34961;-32
2022/08/26 06:50:33;;;;;;;24.80;8.60;;;;;;;;;;110437;1256;35459;-32
2022/08/26 06:53:04;;;;;;;15.60;8.30;;;;;;;;;;110369;1248;34565;-33
2022/08/26 06:55:38;;;;;;;19.20;9.20;;;;;;;;;;110415;1256;35135;-32
2022/08/26 06:58:09;;;;;;;17.80;9.10;;;;;;;;;;110433;1257;34897;-32
2022/08/26 07:00:40;;;;;;;14.10;8.50;;;;;;;;;;110421;1254;34982;-33
2022/08/26 07:03:12;;;;;;;13.20;7.70;;;;;;;;;;110456;1254;35031;-32
2022/08/26 07:05:43;;;;;;;15.80;8.10;;;;;;;;;;110430;1256;35421;-33
2022/08/26 07:08:14;;;;;;;14.60;8.20;;;;;;;;;;110435;1257;33310;-31
2022/08/26 07:10:44;;;;;;;15.10;8.30;;;;;;;;;;110437;1256;34973;-31
2022/08/26 07:13:15;;;;;;;21.80;8.20;;;;;;;;;;110471;1247;35166;-32
2022/08/26 07:15:46;;;;;;;14.80;7.10;;;;;;;;;;110442;1248;32676;-33
2022/08/26 07:18:17;;;;;;;14.80;7.80;;;;;;;;;;110415;1248;33447;-33
2022/08/26 07:20:48;;;;;;;13.60;7.50;;;;;;;;;;110449;1256;35026;-32
2022/08/26 07:23:19;;;;;;;13.80;7.40;;;;;;;;;;110429;1256;35384;-31
2022/08/26 07:25:52;;;;;;;13.60;6.60;;;;;;;;;;110411;1256;33323;-32
2022/08/26 07:28:23;;;;;;;14.40;7.10;;;;;;;;;;110415;1247;35325;-32
2022/08/26 07:30:54;;;;;;;14.80;7.20;;;;;;;;;;110399;1247;35407;-33
2022/08/26 07:33:25;;;;;;;12.80;7.20;;;;;;;;;;110398;1256;34960;-33
2022/08/26 07:35:58;;;;;;;13.00;7.20;;;;;;;;;;110393;1257;35243;-28
2022/08/26 07:38:27;;;;;;;;;;;;;;;;;;109992;1256;538719;-30
2022/08/26 07:40:58;;;;;;;10.40;6.40;;;;;;;;;;110438;1256;34923;-31
2022/08/26 07:43:30;;;;;;;11.30;6.90;;;;;;;;;;110437;1256;35476;-31
2022/08/26 07:46:02;;;;;;;13.10;6.90;;;;;;;;;;110456;1256;33471;-32
2022/08/26 07:48:34;;;;;;;13.00;7.60;;;;;;;;;;110437;1257;34453;-33
2022/08/26 07:51:05;;;;;;;13.90;7.40;;;;;;;;;;110383;1248;34412;-32
2022/08/26 07:53:37;;;;;;;15.50;7.90;;;;;;;;;;110433;1256;35369;-32
2022/08/26 07:56:10;;;;;;;13.10;7.20;;;;;;;;;;110445;1256;35052;-33
2022/08/26 07:58:40;;;;;;;11.80;6.30;;;;;;;;;;110416;1256;35177;-34
2022/08/26 08:01:11;;;;;;;10.10;6.00;;;;;;;;;;110449;1256;35115;-33
2022/08/26 08:03:42;;;;;;;9.40;6.90;;;;;;;;;;110436;1251;35572;-31
2022/08/26 08:06:13;;;;;;;10.20;6.70;;;;;;;;;;110413;1247;33521;-34
2022/08/26 08:08:44;;;;;;;10.30;6.90;;;;;;;;;;110452;1248;33693;-34
2022/08/26 08:11:19;;;;;;;14.10;6.80;;;;;;;;;;110422;1256;35787;-34
2022/08/26 08:13:50;;;;;;;13.30;7.20;;;;;;;;;;110374;1251;33903;-34
2022/08/26 08:16:24;;;;;;;11.60;6.20;;;;;;;;;;110432;1251;34990;-31
2022/08/26 08:18:56;;;;;;;13.60;6.60;;;;;;;;;;110421;1248;35388;-32
2022/08/26 08:21:27;;;;;;;14.10;7.20;;;;;;;;;;110427;1247;35484;-28
2022/08/26 08:23:58;;;;;;;11.50;6.50;;;;;;;;;;110426;1256;34915;-28
2022/08/26 08:26:29;;;;;;;12.50;6.30;;;;;;;;;;110418;1256;35182;-32
2022/08/26 08:29:00;;;;;;;12.10;6.70;;;;;;;;;;110437;1256;35455;-33
2022/08/26 08:31:33;;;;;;;12.60;6.60;;;;;;;;;;110429;1256;35088;-33
2022/08/26 08:34:04;;;;;;;11.30;6.80;;;;;;;;;;110423;1256;35377;-33
2022/08/26 08:36:35;;;;;;;10.20;6.40;;;;;;;;;;110416;1256;35530;-33
2022/08/26 08:39:09;;;;;;;11.20;6.10;;;;;;;;;;110840;1249;35287;-35
2022/08/26 08:41:52;;;;;;;14.50;6.40;;;;;;;;;;110846;1249;33691;-35
2022/08/26 08:44:25;;;;;;;12.20;6.50;;;;;;;;;;110516;1256;33227;-34
2022/08/26 08:46:59;;;;;;;10.00;6.00;;;;;;;;;;110421;1248;33410;-33
2022/08/26 08:49:33;;;;;;;9.50;6.10;;;;;;;;;;110413;1256;34818;-33
2022/08/26 08:52:10;;;;;;;11.50;6.80;;;;;;;;;;110417;1256;35073;-33
2022/08/26 08:54:40;;;;;;;10.10;6.30;;;;;;;;;;110404;1250;35401;-33
2022/08/26 08:57:17;;;;;;;10.80;6.40;;;;;;;;;;110395;1256;35099;-32
2022/08/26 08:59:52;;;;;;;9.30;6.50;;;;;;;;;;110382;1256;34975;-32
2022/08/26 09:02:28;;;;;;;9.30;6.40;;;;;;;;;;110443;1256;35406;-33
2022/08/26 09:05:09;;;;;;;8.50;6.00;;;;;;;;;;110429;1256;34980;-33
2022/08/26 09:07:43;;;;;;;9.10;6.20;;;;;;;;;;110446;1248;34994;-33
2022/08/26 09:10:33;;;;;;;9.70;5.80;;;;;;;;;;110483;1248;35233;-30
2022/08/26 09:13:06;;;;;;;8.90;6.30;;;;;;;;;;110464;1256;35382;-30
2022/08/26 09:15:46;;;;;;;9.50;6.20;;;;;;;;;;110466;1251;35128;-30
2022/08/26 09:18:24;;;;;;;10.20;5.90;;;;;;;;;;110472;1256;33701;-30
2022/08/26 09:20:58;;;;;;;9.00;6.00;;;;;;;;;;110471;1247;33919;-30
2022/08/26 09:23:30;;;;;;;10.60;6.60;;;;;;;;;;110467;1256;34958;-30
2022/08/26 09:26:13;;;;;;;8.50;5.80;;;;;;;;;;110494;1247;33296;-30
2022/08/26 09:28:46;;;;;;;10.40;6.50;;;;;;;;;;110464;1256;35070;-30
2022/08/26 09:31:23;;;;;;;9.90;6.00;;;;;;;;;;110316;1257;35256;-31
2022/08/26 09:34:06;;;;;;;11.20;6.60;;;;;;;;;;110481;1250;35069;-31
2022/08/26 09:36:39;;;;;;;8.80;5.90;;;;;;;;;;110474;1248;35044;-31
2022/08/26 09:39:12;;;;;;;;;;;;;;;;;;110502;1256;35046;-31
2022/08/26 09:41:42;;;;;;;;;;;;;;;;;;110505;1256;34261;-31
2022/08/26 09:44:19;;;;;;;9.00;5.90;;;;;;;;;;110434;1256;34641;-31
2022/08/26 09:46:56;;;;;;;8.20;6.00;;;;;;;;;;110455;1256;34963;-31
2022/08/26 09:49:34;;;;;;;9.30;6.40;;;;;;;;;;110430;1251;34997;-31
2022/08/26 09:52:11;;;;;;;11.70;6.90;;;;;;;;;;110443;1254;34968;-30
2022/08/26 09:54:44;;;;;;;8.80;6.10;;;;;;;;;;110481;1256;34818;-30
2022/08/26 09:57:21;;;;;;;8.20;6.00;;;;;;;;;;110398;1256;35348;-31
2022/08/26 09:59:52;;;;;;;11.30;6.20;;;;;;;;;;110430;1256;35644;-30
2022/08/26 10:02:41;;;;;;;11.00;6.00;;;;;;;;;;110444;1248;35048;-30
2022/08/26 10:05:18;;;;;;;9.60;5.80;;;;;;;;;;110475;1248;35195;-29
2022/08/26 10:07:50;;;;;;;9.70;5.70;;;;;;;;;;110443;1256;35075;-30
2022/08/26 10:10:25;;;;;;;8.20;5.50;;;;;;;;;;110413;1256;34966;-30
2022/08/26 10:13:02;;;;;;;12.50;6.30;;;;;;;;;;110448;1248;35782;-30
2022/08/26 10:15:43;;;;;;;10.40;6.30;;;;;;;;;;110415;1256;34977;-32
2022/08/26 10:18:18;;;;;;;10.00;6.50;;;;;;;;;;110216;1256;34944;-32
2022/08/26 10:20:56;;;;;;;9.80;6.10;;;;;;;;;;110381;1256;34241;-31
2022/08/26 10:23:30;;;;;;;10.30;6.40;;;;;;;;;;110410;1256;34434;-29
2022/08/26 10:26:05;;;;;;;8.80;5.80;;;;;;;;;;110245;1250;34938;-28
2022/08/26 10:28:41;;;;;;;10.10;6.10;;;;;;;;;;110186;1258;33662;-28
2022/08/26 10:31:19;;;;;;;8.60;5.80;;;;;;;;;;110232;1250;35084;-28
2022/08/26 10:33:50;;;;;;;9.10;5.50;;;;;;;;;;110190;1250;35107;-28
2022/08/26 10:39:19;;;;;;;9.40;6.10;;;;;;;;;;110184;1259;35411;-30
2022/08/26 10:41:53;;;;;;;9.40;5.80;;;;;;;;;;110201;1258;33317;-31
2022/08/26 10:44:26;;;;;;;9.70;5.20;;;;;;;;;;110210;1251;35408;-30
2022/08/26 10:47:09;;;;;;;9.10;5.80;;;;;;;;;;110229;1250;35648;-30
2022/08/26 10:49:42;;;;;;;7.90;5.70;;;;;;;;;;110165;1258;35110;-30
2022/08/26 10:52:18;;;;;;;10.10;5.80;;;;;;;;;;110226;1250;35389;-30
2022/08/26 10:54:53;;;;;;;9.90;5.50;;;;;;;;;;110203;1258;34303;-30
2022/08/26 10:57:27;;;;;;;9.70;5.40;;;;;;;;;;110190;1251;33905;-30
2022/08/26 11:01:40;;;;;;;10.20;5.90;;;;;;;;;;110184;1258;35052;-29
2022/08/26 11:03:05;;;;;;;9.90;6.10;;;;;;;;;;110190;1250;35016;-30
2022/08/26 11:05:36;;;;;;;9.40;5.40;;;;;;;;;;110188;1251;34993;-30
2022/08/26 11:08:30;;;;;;;8.70;5.70;;;;;;;;;;110201;1250;35020;-30
2022/08/26 11:11:01;;;;;;;8.40;5.70;;;;;;;;;;110176;1257;33776;-32
2022/08/26 11:14:00;;;;;;;9.40;5.50;;;;;;;;;;110202;1257;35024;-32
2022/08/26 11:16:38;;;;;;;10.40;6.20;;;;;;;;;;110275;1258;35036;-31
2022/08/26 11:19:10;;;;;;;9.50;5.40;;;;;;;;;;110248;1253;35248;-30
2022/08/26 11:22:05;;;;;;;8.90;5.50;;;;;;;;;;110266;1250;35042;-31
2022/08/26 11:25:08;;;;;;;10.00;6.50;;;;;;;;;;110305;1250;35516;-30
2022/08/26 11:28:05;;;;;;;9.20;5.50;;;;;;;;;;110397;1256;33290;-30
2022/08/26 11:30:44;;;;;;;12.30;6.30;;;;;;;;;;110240;1257;34972;-31
2022/08/26 11:33:57;;;;;;;9.90;5.80;;;;;;;;;;110249;1257;35029;-31
2022/08/26 11:36:58;;;;;;;9.50;5.80;;;;;;;;;;110247;1249;36419;-31
2022/08/26 11:39:33;;;;;;;8.50;6.00;;;;;;;;;;110240;1251;35011;-29
2022/08/26 11:42:16;;;;;;;9.40;6.20;;;;;;;;;;110242;1257;35603;-29
2022/08/26 11:44:48;;;;;;;9.80;6.20;;;;;;;;;;110279;1257;35510;-29
2022/08/26 11:47:28;;;;;;;9.10;6.40;;;;;;;;;;110353;1256;35080;-29
2022/08/26 11:50:17;;;;;;;8.20;6.10;;;;;;;;;;110389;1248;33445;-29
2022/08/26 11:53:00;;;;;;;8.00;5.70;;;;;;;;;;110310;1247;35031;-31
2022/08/26 11:55:32;;;;;;;9.90;6.00;;;;;;;;;;110400;1256;35289;-29
2022/08/26 11:58:06;;;;;;;8.70;5.70;;;;;;;;;;110408;1256;35449;-30
2022/08/26 12:00:50;;;;;;;8.90;5.90;;;;;;;;;;110417;1248;35109;-31
2022/08/26 12:03:22;;;;;;;9.20;5.90;;;;;;;;;;110411;1256;34975;-32
2022/08/26 12:05:54;;;;;;;9.30;5.70;;;;;;;;;;110442;1248;35241;-32
2022/08/26 12:08:27;;;;;;;8.20;6.00;;;;;;;;;;110395;1256;35016;-32
2022/08/26 12:11:07;;;;;;;8.80;6.00;;;;;;;;;;110229;1257;35491;-32
2022/08/26 12:13:38;;;;;;;9.00;5.70;;;;;;;;;;110244;1250;35477;-32
2022/08/26 12:16:09;;;;;;;7.20;5.80;;;;;;;;;;110254;1250;34944;-31
2022/08/26 12:18:40;;;;;;;8.20;6.30;;;;;;;;;;110284;1257;33358;-31
2022/08/26 12:21:20;;;;;;;8.60;5.90;;;;;;;;;;110272;1257;35324;-31
2022/08/26 12:23:53;;;;;;;8.00;5.60;;;;;;;;;;110240;1257;33283;-29
2022/08/26 12:26:30;;;;;;;7.40;5.90;;;;;;;;;;110318;1250;33406;-29
2022/08/26 12:29:03;;;;;;;7.90;5.80;;;;;;;;;;110372;1248;35291;-30
2022/08/26 12:31:35;;;;;;;9.10;5.90;;;;;;;;;;110408;1248;34413;-31
2022/08/26 12:34:08;;;;;;;8.30;5.80;;;;;;;;;;110374;1256;33791;-32
2022/08/26 12:36:45;;;;;;;8.30;5.80;;;;;;;;;;110348;1256;34283;-30
2022/08/26 12:39:26;;;;;;;7.30;5.60;;;;;;;;;;110400;1247;35421;-30
2022/08/26 12:42:07;;;;;;;8.40;5.60;;;;;;;;;;110405;1256;35359;-31
2022/08/26 12:44:44;;;;;;;7.60;5.80;;;;;;;;;;110362;1248;33246;-30
2022/08/26 12:47:27;;;;;;;7.40;5.60;;;;;;;;;;110431;1256;35173;-30
2022/08/26 12:50:08;;;;;;;8.10;5.90;;;;;;;;;;110402;1256;33322;-31
2022/08/26 12:52:42;;;;;;;7.50;5.50;;;;;;;;;;110420;1256;33593;-31
2022/08/26 12:55:23;;;;;;;8.40;5.40;;;;;;;;;;110382;1247;35075;-31
2022/08/26 12:58:11;;;;;;;8.70;5.70;;;;;;;;;;110371;1247;33422;-31
2022/08/26 13:00:46;;;;;;;8.30;6.00;;;;;;;;;;110249;1256;36343;-30
2022/08/26 13:03:45;;;;;;;8.20;5.60;;;;;;;;;;112001;1248;30989;-30
2022/08/26 13:06:31;;;;;;;7.20;5.10;;;;;;;;;;112023;1256;30797;-30
2022/08/26 13:09:25;;;;;;;8.30;5.40;;;;;;;;;;110152;1249;35060;-30
2022/08/26 13:12:03;;;;;;;7.50;5.10;;;;;;;;;;110164;1249;36088;-30
2022/08/26 13:14:33;;;;;;;7.80;5.40;;;;;;;;;;110199;1250;35143;-30
2022/08/26 13:17:04;;;;;;;6.30;5.10;;;;;;;;;;110315;1251;34856;-30
2022/08/26 13:19:35;;;;;;;7.40;5.30;;;;;;;;;;110183;1256;34952;-30
2022/08/26 13:22:06;;;;;;;7.10;5.20;;;;;;;;;;110362;1256;35230;-30
2022/08/26 13:24:39;;;;;;;7.40;5.60;;;;;;;;;;110359;1256;34874;-31
2022/08/26 13:27:13;;;;;;;6.10;5.30;;;;;;;;;;110348;1256;35001;-31
2022/08/26 13:29:43;;;;;;;7.00;4.80;;;;;;;;;;110367;1250;35001;-31
2022/08/26 13:32:14;;;;;;;7.80;5.10;;;;;;;;;;110378;1248;33263;-31
2022/08/26 13:34:46;;;;;;;8.40;5.50;;;;;;;;;;110380;1256;34486;-31
2022/08/26 13:37:20;;;;;;;7.40;5.30;;;;;;;;;;110518;1248;35027;-34
2022/08/26 13:39:52;;;;;;;9.10;5.60;;;;;;;;;;110580;1255;34860;-34
2022/08/26 13:42:24;;;;;;;8.60;5.70;;;;;;;;;;110614;1248;34070;-34
2022/08/26 13:44:58;;;;;;;7.10;5.20;;;;;;;;;;110700;1247;33743;-35
2022/08/26 13:47:33;;;;;;;6.60;5.20;;;;;;;;;;110972;1255;32693;-36
2022/08/26 13:50:05;;;;;;;6.80;5.10;;;;;;;;;;111024;1255;32388;-34
2022/08/26 13:52:41;;;;;;;7.40;5.40;;;;;;;;;;111096;1248;33594;-34
2022/08/26 13:55:16;;;;;;;7.20;5.00;;;;;;;;;;111130;1248;33717;-34
2022/08/26 13:57:52;;;;;;;6.50;5.30;;;;;;;;;;111106;1255;35330;-34
2022/08/26 14:00:25;;;;;;;7.30;5.20;;;;;;;;;;111022;1255;33282;-35
2022/08/26 14:02:57;;;;;;;8.10;5.30;;;;;;;;;;111178;1255;33963;-35
2022/08/26 14:05:30;;;;;;;8.30;6.00;;;;;;;;;;111101;1255;35090;-34
2022/08/26 14:08:01;;;;;;;6.90;5.60;;;;;;;;;;110722;1255;33297;-30
2022/08/26 14:10:32;;;;;;;10.00;5.90;;;;;;;;;;110447;1255;34880;-30
2022/08/26 14:13:03;;;;;;;7.60;5.90;;;;;;;;;;110457;1247;34972;-30
2022/08/26 14:15:37;;;;;;;6.70;5.50;;;;;;;;;;110471;1255;34169;-30
2022/08/26 14:18:12;;;;;;;8.00;6.10;;;;;;;;;;110482;1255;34906;-30
2022/08/26 14:20:45;;;;;;;9.40;6.40;;;;;;;;;;110463;1248;35400;-30
2022/08/26 14:23:17;;;;;;;7.20;6.20;;;;;;;;;;110485;1255;35465;-30
2022/08/26 14:25:48;;;;;;;7.60;6.10;;;;;;;;;;110436;1255;34240;-30
2022/08/26 14:28:19;;;;;;;8.00;5.80;;;;;;;;;;110445;1255;34984;-30
2022/08/26 14:30:58;;;;;;;10.60;6.30;;;;;;;;;;110460;1255;35074;-29
2022/08/26 14:33:32;;;;;;;8.10;6.30;;;;;;;;;;110430;1255;35111;-29
2022/08/26 14:38:49;;;;;;;8.00;6.90;;;;;;;;;;110445;1251;33798;-30
2022/08/26 14:41:21;;;;;;;8.70;6.80;;;;;;;;;;110485;1247;33654;-31
2022/08/26 14:43:58;;;;;;;9.20;6.90;;;;;;;;;;110446;1255;35074;-31
2022/08/26 14:46:32;;;;;;;7.90;7.00;;;;;;;;;;110444;1255;35163;-31
2022/08/26 14:49:04;;;;;;;8.80;6.50;;;;;;;;;;110433;1247;35192;-31
2022/08/26 14:51:36;;;;;;;8.10;6.60;;;;;;;;;;110416;1255;35490;-30
2022/08/26 14:54:14;;;;;;;7.20;6.20;;;;;;;;;;110447;1255;34938;-31
2022/08/26 14:56:49;;;;;;;9.00;6.10;;;;;;;;;;110457;1256;33278;-33
2022/08/26 14:59:22;;;;;;;7.40;5.90;;;;;;;;;;110467;1255;34943;-33
2022/08/26 15:01:53;;;;;;;7.80;6.10;;;;;;;;;;110484;1255;35468;-33
2022/08/26 15:04:25;;;;;;;8.90;6.40;;;;;;;;;;110468;1255;35545;-33
2022/08/26 15:06:58;;;;;;;9.30;6.30;;;;;;;;;;110428;1247;34931;-32
2022/08/26 15:09:31;;;;;;;8.50;6.60;;;;;;;;;;110461;1255;34981;-33
2022/08/26 15:12:03;;;;;;;7.50;6.60;;;;;;;;;;110428;1256;34970;-33
2022/08/26 15:14:35;;;;;;;8.50;6.70;;;;;;;;;;110492;1247;33952;-33
2022/08/26 15:17:06;;;;;;;7.90;6.90;;;;;;;;;;110445;1247;34990;-33
2022/08/26 15:19:37;;;;;;;8.40;7.00;;;;;;;;;;110438;1248;34405;-33
2022/08/26 15:22:08;;;;;;;8.20;7.10;;;;;;;;;;110382;1256;35590;-32